createdAt,value
2022-12-03T00:01:01.946Z,11.32
2022-12-03T00:04:04.128Z,11.73
2022-12-03T00:07:06.243Z,12.50
2022-12-03T00:10:09.029Z,10.40
2022-12-03T00:13:11.036Z,11.20
2022-12-03T00:16:13.060Z,11.68
2022-12-03T00:19:15.334Z,10.87
2022-12-03T00:22:17.282Z,11.07
2022-12-03T00:25:19.291Z,9.10
2022-12-03T00:28:22.792Z,11.43
2022-12-03T00:31:25.858Z,11.45
2022-12-03T00:34:28.046Z,10.20
2022-12-03T00:37:30.210Z,9.23
2022-12-03T00:40:32.343Z,10.48
2022-12-03T00:43:34.357Z,9.40
2022-12-03T00:46:36.418Z,10.13
2022-12-03T00:49:38.808Z,9.30
2022-12-03T00:52:40.826Z,8.60
2022-12-03T00:55:42.825Z,9.63
2022-12-03T00:58:44.859Z,9.55
2022-12-03T01:01:46.918Z,9.60
2022-12-03T01:04:49.143Z,9.77
2022-12-03T01:07:51.306Z,8.27
2022-12-03T01:10:53.340Z,9.77
2022-12-03T01:13:55.350Z,8.57
2022-12-03T01:16:57.408Z,8.18
2022-12-03T01:19:59.508Z,8.80
2022-12-03T01:23:01.454Z,9.40
2022-12-03T01:26:03.523Z,8.70
2022-12-03T01:29:06.253Z,8.30
2022-12-03T01:32:21.923Z,9.85
2022-12-03T01:35:23.970Z,8.50
2022-12-03T01:38:26.059Z,8.47
2022-12-03T01:41:29.083Z,8.65
2022-12-03T01:44:33.355Z,7.97
2022-12-03T01:47:37.143Z,8.95
2022-12-03T01:50:39.332Z,7.53
2022-12-03T01:53:42.811Z,7.97
2022-12-03T01:56:46.322Z,8.55
2022-12-03T01:59:49.512Z,7.70
2022-12-03T02:03:02.381Z,8.75
2022-12-03T02:06:04.791Z,8.20
2022-12-03T02:09:08.773Z,7.83
2022-12-03T02:12:11.490Z,8.60
2022-12-03T02:15:13.874Z,7.85
2022-12-03T02:18:15.903Z,8.18
2022-12-03T02:21:29.600Z,7.77
2022-12-03T02:25:03.350Z,7.23
2022-12-03T02:28:08.429Z,7.95
2022-12-03T02:31:10.742Z,8.85
2022-12-03T02:34:42.789Z,8.38
2022-12-03T02:37:47.528Z,8.30
2022-12-03T02:40:52.874Z,8.77
2022-12-03T02:43:55.016Z,9.30
2022-12-03T02:46:57.099Z,8.80
2022-12-03T02:50:00.042Z,7.97
2022-12-03T02:53:09.335Z,9.80
2022-12-03T02:56:15.537Z,8.53
2022-12-03T02:59:17.622Z,9.10
2022-12-03T03:02:19.968Z,9.50
2022-12-03T03:05:23.830Z,8.82
2022-12-03T03:08:27.360Z,9.50
2022-12-03T03:11:29.574Z,9.17
2022-12-03T03:14:33.080Z,10.02
2022-12-03T03:17:35.529Z,8.73
2022-12-03T03:20:38.600Z,9.68
2022-12-03T03:23:40.850Z,9.27
2022-12-03T03:26:42.866Z,9.63
2022-12-03T03:29:44.943Z,8.65
2022-12-03T03:32:47.025Z,9.88
2022-12-03T03:35:49.755Z,8.77
2022-12-03T03:38:52.291Z,8.80
2022-12-03T03:41:54.350Z,8.60
2022-12-03T03:44:56.594Z,9.85
2022-12-03T03:48:00.433Z,9.82
2022-12-03T03:51:03.952Z,9.43
2022-12-03T03:54:07.130Z,10.63
2022-12-03T03:57:09.158Z,9.33
2022-12-03T04:00:12.269Z,9.82
2022-12-03T04:03:14.298Z,8.52
2022-12-03T04:06:16.481Z,9.50
2022-12-03T04:09:18.528Z,8.97
2022-12-03T04:12:39.204Z,8.17
2022-12-03T04:15:41.198Z,9.05
2022-12-03T04:18:43.191Z,9.88
2022-12-03T04:22:03.809Z,9.48
2022-12-03T04:25:25.454Z,9.80
2022-12-03T04:28:46.247Z,9.97
2022-12-03T04:32:06.905Z,9.98
2022-12-03T04:35:28.617Z,9.10
2022-12-03T04:38:30.857Z,9.77
2022-12-03T04:41:32.903Z,7.33
2022-12-03T04:44:37.961Z,10.50
2022-12-03T04:47:40.213Z,9.85
2022-12-03T04:50:42.290Z,9.98
2022-12-03T04:53:46.321Z,10.80
2022-12-03T04:56:48.628Z,10.00
2022-12-03T04:59:50.548Z,10.13
2022-12-03T05:02:52.790Z,9.63
2022-12-03T05:05:54.795Z,10.98
2022-12-03T05:08:56.750Z,9.63
2022-12-03T05:11:58.717Z,9.20
2022-12-03T05:15:00.801Z,10.33
2022-12-03T05:18:02.859Z,9.40
2022-12-03T05:21:05.163Z,5.53
2022-12-03T05:24:07.331Z,9.57
2022-12-03T05:27:09.309Z,8.97
2022-12-03T05:30:11.644Z,8.60
2022-12-03T05:33:13.913Z,8.75
2022-12-03T05:36:15.969Z,9.65
2022-12-03T05:39:17.954Z,9.80
2022-12-03T05:42:38.313Z,9.80
2022-12-03T05:45:42.479Z,9.97
2022-12-03T05:48:48.071Z,8.95
2022-12-03T05:51:53.742Z,9.45
2022-12-03T05:55:00.034Z,8.68
2022-12-03T05:58:02.106Z,10.20
2022-12-03T06:01:04.371Z,9.80
2022-12-03T06:04:06.571Z,12.43
2022-12-03T06:07:13.779Z,11.43
2022-12-03T06:10:21.832Z,10.38
2022-12-03T06:13:23.843Z,11.13
2022-12-03T06:16:25.839Z,12.50
2022-12-03T06:19:27.844Z,14.70
2022-12-03T06:22:29.948Z,18.00
2022-12-03T06:25:32.009Z,11.60
2022-12-03T06:28:33.931Z,10.93
2022-12-03T06:31:36.564Z,11.67
2022-12-03T06:34:38.841Z,10.90
2022-12-03T06:37:41.397Z,10.18
2022-12-03T06:40:43.401Z,14.20
2022-12-03T06:43:45.314Z,10.67
2022-12-03T06:46:47.608Z,11.37
2022-12-03T06:49:49.730Z,11.52
2022-12-03T06:52:51.774Z,9.05
2022-12-03T06:55:53.733Z,9.65
2022-12-03T06:58:56.195Z,10.27
2022-12-03T07:01:58.930Z,10.50
2022-12-03T07:05:00.975Z,10.63
2022-12-03T07:08:03.121Z,10.10
2022-12-03T07:11:05.441Z,8.55
2022-12-03T07:14:11.537Z,11.07
2022-12-03T07:17:13.815Z,11.50
2022-12-03T07:20:16.479Z,10.10
2022-12-03T07:23:18.383Z,10.40
2022-12-03T07:26:20.476Z,11.80
2022-12-03T07:29:22.490Z,10.03
2022-12-03T07:32:24.549Z,10.80
2022-12-03T07:35:26.670Z,11.35
2022-12-03T07:38:28.736Z,10.20
2022-12-03T07:41:31.185Z,11.85
2022-12-03T07:44:33.240Z,12.57
2022-12-03T07:47:35.228Z,16.80
2022-12-03T07:50:37.346Z,11.12
2022-12-03T07:53:39.319Z,10.15
2022-12-03T07:56:41.296Z,12.32
2022-12-03T07:59:43.319Z,12.70
2022-12-03T08:02:45.417Z,11.97
2022-12-03T08:05:47.603Z,11.52
2022-12-03T08:08:49.653Z,12.77
2022-12-03T08:11:52.315Z,11.60
2022-12-03T08:14:54.542Z,9.87
2022-12-03T08:18:01.142Z,10.40
2022-12-03T08:21:03.137Z,11.70
2022-12-03T08:24:19.806Z,11.38
2022-12-03T08:27:23.777Z,12.23
2022-12-03T08:30:25.915Z,12.13
2022-12-03T08:33:33.771Z,10.10
2022-12-03T08:36:36.605Z,9.57
2022-12-03T08:39:49.795Z,11.93
2022-12-03T08:42:51.832Z,13.00
2022-12-03T08:45:56.305Z,11.80
2022-12-03T08:48:58.510Z,12.00
2022-12-03T08:52:10.448Z,8.80
2022-12-03T08:55:34.482Z,12.77
2022-12-03T08:58:44.756Z,12.82
2022-12-03T09:01:48.442Z,12.27
2022-12-03T09:04:52.230Z,11.03
2022-12-03T09:07:54.393Z,11.95
2022-12-03T09:10:56.754Z,11.60
2022-12-03T09:13:59.138Z,12.35
2022-12-03T09:17:01.195Z,14.47
2022-12-03T09:20:04.624Z,14.20
2022-12-03T09:23:07.319Z,15.07
2022-12-03T09:26:09.369Z,11.68
2022-12-03T09:29:12.546Z,13.35
2022-12-03T09:32:18.334Z,14.93
2022-12-03T09:35:20.899Z,12.47
2022-12-03T09:38:22.886Z,10.73
2022-12-03T09:41:26.327Z,12.93
2022-12-03T09:44:33.675Z,10.88
2022-12-03T09:47:35.684Z,13.23
2022-12-03T09:50:40.546Z,13.67
2022-12-03T09:53:42.730Z,13.93
2022-12-03T09:56:44.714Z,14.07
2022-12-03T09:59:47.809Z,14.65
2022-12-03T10:02:51.674Z,13.13
2022-12-03T10:05:53.983Z,13.10
2022-12-03T10:08:56.581Z,13.15
2022-12-03T10:11:59.997Z,13.60
2022-12-03T10:15:02.339Z,12.48
2022-12-03T10:18:19.244Z,13.17
2022-12-03T10:21:29.382Z,13.03
2022-12-03T10:24:32.858Z,11.48
2022-12-03T10:27:34.916Z,15.05
2022-12-03T10:30:36.960Z,13.68
2022-12-03T10:33:45.033Z,14.57
2022-12-03T10:36:46.974Z,14.80
2022-12-03T10:39:56.210Z,11.95
2022-12-03T10:43:26.891Z,6.20
2022-12-03T10:46:29.001Z,6.78
2022-12-03T10:49:31.070Z,12.23
2022-12-03T10:52:33.288Z,13.50
2022-12-03T10:55:39.887Z,12.63
2022-12-03T10:58:42.455Z,10.40
2022-12-03T11:01:45.018Z,12.02
2022-12-03T11:04:47.266Z,12.93
2022-12-03T11:07:49.673Z,13.17
2022-12-03T11:10:57.897Z,13.60
2022-12-03T11:14:02.392Z,12.23
2022-12-03T11:17:04.314Z,11.80
2022-12-03T11:20:10.725Z,11.73
2022-12-03T11:23:12.700Z,12.63
2022-12-03T11:26:19.638Z,11.63
2022-12-03T11:29:49.898Z,11.25
2022-12-03T11:32:54.974Z,12.98
2022-12-03T11:36:31.778Z,13.07
2022-12-03T11:39:44.901Z,10.17
2022-12-03T11:42:49.033Z,11.45
2022-12-03T11:45:51.408Z,9.35
2022-12-03T11:48:55.777Z,10.05
2022-12-03T11:52:00.834Z,13.43
2022-12-03T11:55:14.665Z,11.63
2022-12-03T11:58:22.397Z,9.60
2022-12-03T12:01:39.860Z,12.95
2022-12-03T12:04:46.654Z,11.77
2022-12-03T12:07:49.079Z,11.07
2022-12-03T12:10:51.275Z,13.37
2022-12-03T12:13:55.516Z,12.05
2022-12-03T12:16:58.563Z,13.20
2022-12-03T12:20:26.830Z,14.10
2022-12-03T12:23:29.615Z,14.33
2022-12-03T12:26:31.554Z,14.70
2022-12-03T12:29:34.781Z,14.38
2022-12-03T12:32:48.680Z,13.62
2022-12-03T12:35:51.301Z,14.07
2022-12-03T12:38:53.623Z,12.07
2022-12-03T12:42:06.637Z,9.33
2022-12-03T12:45:32.679Z,12.27
2022-12-03T12:48:35.712Z,12.40
2022-12-03T12:51:49.820Z,11.57
2022-12-03T12:54:51.852Z,9.33
2022-12-03T12:58:00.105Z,11.10
2022-12-03T13:01:06.607Z,12.13
2022-12-03T13:04:20.432Z,11.70
2022-12-03T13:07:22.605Z,10.75
2022-12-03T13:10:36.826Z,11.37
2022-12-03T13:13:44.126Z,11.97
2022-12-03T13:16:48.466Z,11.50
2022-12-03T13:20:00.519Z,12.30
2022-12-03T13:23:26.313Z,13.35
2022-12-03T13:26:39.879Z,12.27
2022-12-03T13:29:43.446Z,11.30
2022-12-03T13:32:46.203Z,9.85
2022-12-03T13:35:48.215Z,11.45
2022-12-03T13:38:50.193Z,11.63
2022-12-03T13:42:12.095Z,10.20
2022-12-03T13:45:14.008Z,11.77
2022-12-03T13:48:23.593Z,11.27
2022-12-03T13:51:33.030Z,12.57
2022-12-03T13:54:39.038Z,13.50
2022-12-03T13:57:40.976Z,15.07
2022-12-03T14:00:43.408Z,13.93
2022-12-03T14:03:45.500Z,11.82
2022-12-03T14:06:47.610Z,13.38
2022-12-03T14:09:49.654Z,11.75
2022-12-03T14:12:51.783Z,11.37
2022-12-03T14:15:54.037Z,11.47
2022-12-03T14:18:56.257Z,11.93
2022-12-03T14:22:00.623Z,11.75
2022-12-03T14:25:02.713Z,12.07
2022-12-03T14:28:08.739Z,12.57
2022-12-03T14:31:10.798Z,11.00
2022-12-03T14:34:12.763Z,11.82
2022-12-03T14:37:15.265Z,12.52
2022-12-03T14:40:21.467Z,11.40
2022-12-03T14:43:24.031Z,10.50
2022-12-03T14:46:26.114Z,12.03
2022-12-03T14:49:28.226Z,10.95
2022-12-03T14:52:30.203Z,11.85
2022-12-03T14:55:32.327Z,14.30
2022-12-03T14:58:34.695Z,21.27
2022-12-03T15:01:36.935Z,16.77
2022-12-03T15:04:40.595Z,13.23
2022-12-03T15:07:42.950Z,15.63
2022-12-03T15:10:44.966Z,15.90
2022-12-03T15:13:46.973Z,13.03
2022-12-03T15:16:49.058Z,11.87
2022-12-03T15:19:51.402Z,13.15
2022-12-03T15:22:53.902Z,13.52
2022-12-03T15:25:55.967Z,11.25
2022-12-03T15:28:58.131Z,13.57
2022-12-03T15:32:01.151Z,14.07
2022-12-03T15:35:03.420Z,13.55
2022-12-03T15:38:05.568Z,12.45
2022-12-03T15:41:24.823Z,12.68
2022-12-03T15:44:26.847Z,13.90
2022-12-03T15:47:28.864Z,13.47
2022-12-03T15:50:34.527Z,13.60
2022-12-03T15:53:40.080Z,14.30
2022-12-03T15:56:42.505Z,12.68
2022-12-03T15:59:44.991Z,13.87
2022-12-03T16:02:52.682Z,12.53
2022-12-03T16:05:55.157Z,13.38
2022-12-03T16:08:57.514Z,12.55
2022-12-03T16:11:59.585Z,12.88
2022-12-03T16:15:01.688Z,12.67
2022-12-03T16:18:04.175Z,13.37
2022-12-03T16:21:06.729Z,13.77
2022-12-03T16:24:09.138Z,13.00
2022-12-03T16:27:11.514Z,12.98
2022-12-03T16:30:14.649Z,13.33
2022-12-03T16:33:17.712Z,14.03
2022-12-03T16:36:21.121Z,14.02
2022-12-03T16:39:23.127Z,13.62
2022-12-03T16:42:25.741Z,13.48
2022-12-03T16:45:47.266Z,13.47
2022-12-03T16:48:50.217Z,12.73
2022-12-03T16:51:52.283Z,15.77
2022-12-03T16:54:54.269Z,13.48
2022-12-03T16:57:56.216Z,13.18
2022-12-03T17:00:58.651Z,13.67
2022-12-03T17:04:00.699Z,15.77
2022-12-03T17:07:02.715Z,13.07
2022-12-03T17:10:05.588Z,13.45
2022-12-03T17:13:09.968Z,12.55
2022-12-03T17:16:12.754Z,11.63
2022-12-03T17:19:15.488Z,12.57
2022-12-03T17:22:17.874Z,12.80
2022-12-03T17:25:19.986Z,13.62
2022-12-03T17:28:21.917Z,11.75
2022-12-03T17:31:24.904Z,13.07
2022-12-03T17:34:27.123Z,12.80
2022-12-03T17:37:29.345Z,14.07
2022-12-03T17:40:31.388Z,12.95
2022-12-03T17:43:33.777Z,16.62
2022-12-03T17:46:37.236Z,13.10
2022-12-03T17:49:39.362Z,13.47
2022-12-03T17:52:41.436Z,14.43
2022-12-03T17:55:45.204Z,16.08
2022-12-03T17:58:47.381Z,13.15
2022-12-03T18:01:49.580Z,14.40
2022-12-03T18:04:51.619Z,21.37
2022-12-03T18:07:53.664Z,18.95
2022-12-03T18:10:59.319Z,20.02
2022-12-03T18:14:01.768Z,19.33
2022-12-03T18:17:05.196Z,16.73
2022-12-03T18:20:08.269Z,14.90
2022-12-03T18:23:11.168Z,14.35
2022-12-03T18:26:14.232Z,17.87
2022-12-03T18:29:16.445Z,20.08
2022-12-03T18:32:29.241Z,19.87
2022-12-03T18:35:31.970Z,18.93
2022-12-03T18:38:34.695Z,18.40
2022-12-03T18:41:36.921Z,18.12
2022-12-03T18:44:39.114Z,15.95
2022-12-03T18:47:41.312Z,16.40
2022-12-03T18:50:43.794Z,16.53
2022-12-03T18:53:45.959Z,15.93
2022-12-03T18:56:47.974Z,14.77
2022-12-03T18:59:50.226Z,14.40
2022-12-03T19:03:08.134Z,15.47
2022-12-03T19:06:18.603Z,15.07
2022-12-03T19:09:28.612Z,13.73
2022-12-03T19:12:31.696Z,14.68
2022-12-03T19:15:39.093Z,15.45
2022-12-03T19:18:41.928Z,13.90
2022-12-03T19:21:44.867Z,14.70
2022-12-03T19:24:47.545Z,14.20
2022-12-03T19:27:52.373Z,14.82
2022-12-03T19:31:02.295Z,14.15
2022-12-03T19:34:12.236Z,15.30
2022-12-03T19:37:26.707Z,15.13
2022-12-03T19:40:29.331Z,14.87
2022-12-03T19:43:34.873Z,15.15
2022-12-03T19:46:37.923Z,15.00
2022-12-03T19:49:41.604Z,14.47
2022-12-03T19:52:44.132Z,14.20
2022-12-03T19:55:47.764Z,15.98
2022-12-03T19:58:56.327Z,15.10
2022-12-03T20:02:06.982Z,15.27
2022-12-03T20:05:15.325Z,14.63
2022-12-03T20:08:32.883Z,15.60
2022-12-03T20:12:02.692Z,14.77
2022-12-03T20:15:26.477Z,15.00
2022-12-03T20:18:39.215Z,15.23
2022-12-03T20:21:51.243Z,15.47
2022-12-03T20:25:12.056Z,16.17
2022-12-03T20:28:24.206Z,14.82
2022-12-03T20:31:40.773Z,16.27
2022-12-03T20:34:45.757Z,15.20
2022-12-03T20:37:48.163Z,14.20
2022-12-03T20:40:51.387Z,15.23
2022-12-03T20:43:55.084Z,14.80
2022-12-03T20:46:59.347Z,14.87
2022-12-03T20:50:11.788Z,15.40
2022-12-03T20:53:27.163Z,15.50
2022-12-03T20:56:35.009Z,16.50
2022-12-03T20:59:45.905Z,14.85
2022-12-03T21:02:49.050Z,14.73
2022-12-03T21:05:59.326Z,13.82
2022-12-03T21:09:02.635Z,14.33
2022-12-03T21:12:05.306Z,15.03
2022-12-03T21:15:07.862Z,16.17
2022-12-03T21:18:13.091Z,14.57
2022-12-03T21:21:16.661Z,16.02
2022-12-03T21:24:19.184Z,14.73
2022-12-03T21:27:21.938Z,15.47
2022-12-03T21:30:24.193Z,15.32
2022-12-03T21:33:26.800Z,14.75
2022-12-03T21:36:28.839Z,14.70
2022-12-03T21:39:30.975Z,15.70
2022-12-03T21:42:36.450Z,16.07
2022-12-03T21:45:41.282Z,15.13
2022-12-03T21:48:49.082Z,16.33
2022-12-03T21:51:51.290Z,15.07
2022-12-03T21:54:55.266Z,16.00
2022-12-03T21:57:57.443Z,13.30
2022-12-03T22:00:59.458Z,15.00
2022-12-03T22:04:02.215Z,16.23
2022-12-03T22:07:04.994Z,15.85
2022-12-03T22:10:09.516Z,16.70
2022-12-03T22:13:12.207Z,15.33
2022-12-03T22:16:18.046Z,17.02
2022-12-03T22:19:23.579Z,18.58
2022-12-03T22:22:25.605Z,18.62
2022-12-03T22:25:27.583Z,17.90
2022-12-03T22:28:30.052Z,19.07
2022-12-03T22:31:32.461Z,19.40
2022-12-03T22:34:34.619Z,19.00
2022-12-03T22:37:36.731Z,19.40
2022-12-03T22:40:39.706Z,19.67
2022-12-03T22:43:41.848Z,20.47
2022-12-03T22:46:43.909Z,18.25
2022-12-03T22:49:45.884Z,19.48
2022-12-03T22:52:47.982Z,15.38
2022-12-03T22:55:58.576Z,17.93
2022-12-03T22:59:01.141Z,20.53
2022-12-03T23:02:03.189Z,17.65
2022-12-03T23:05:05.580Z,20.15
2022-12-03T23:08:11.023Z,19.40
2022-12-03T23:11:13.566Z,15.37
2022-12-03T23:14:15.667Z,19.77
2022-12-03T23:17:17.743Z,19.55
2022-12-03T23:20:19.840Z,12.32
2022-12-03T23:23:24.183Z,20.73
2022-12-03T23:26:27.123Z,18.80
2022-12-03T23:29:29.392Z,18.57
2022-12-03T23:32:31.431Z,20.05
2022-12-03T23:35:33.965Z,19.25
2022-12-03T23:38:36.107Z,19.42
2022-12-03T23:41:38.102Z,18.90
2022-12-03T23:44:40.157Z,17.13
2022-12-03T23:47:42.154Z,18.87
2022-12-03T23:50:44.493Z,19.45
2022-12-03T23:53:47.067Z,19.23
2022-12-03T23:56:49.418Z,19.67
2022-12-03T23:59:51.582Z,18.60
